sensor_id;sensor_type;location;lat;lon;timestamp;P1;durP1;ratioP1;P2;durP2;ratioP2
3407;SDS011;1717;50.240;8.406;2023-08-20T00:00:06;13.13;;;6.33;;
3407;SDS011;1717;50.240;8.406;2023-08-20T00:02:35;9.40;;;5.60;;
3407;SDS011;1717;50.240;8.406;2023-08-20T00:05:03;7.60;;;5.00;;
3407;SDS011;1717;50.240;8.406;2023-08-20T00:07:31;7.03;;;5.13;;
3407;SDS011;1717;50.240;8.406;2023-08-20T00:09:58;6.03;;;4.30;;
3407;SDS011;1717;50.240;8.406;2023-08-20T00:12:25;9.20;;;4.93;;
3407;SDS011;1717;50.240;8.406;2023-08-20T00:14:53;12.40;;;4.97;;
3407;SDS011;1717;50.240;8.406;2023-08-20T00:17:24;10.73;;;4.97;;
3407;SDS011;1717;50.240;8.406;2023-08-20T00:19:52;6.53;;;5.20;;
3407;SDS011;1717;50.240;8.406;2023-08-20T00:22:21;5.83;;;4.87;;
3407;SDS011;1717;50.240;8.406;2023-08-20T00:24:49;8.23;;;5.30;;
3407;SDS011;1717;50.240;8.406;2023-08-20T00:27:16;6.70;;;5.30;;
3407;SDS011;1717;50.240;8.406;2023-08-20T00:29:43;7.00;;;4.83;;
3407;SDS011;1717;50.240;8.406;2023-08-20T00:32:10;7.60;;;4.87;;
3407;SDS011;1717;50.240;8.406;2023-08-20T00:34:38;6.17;;;5.10;;
3407;SDS011;1717;50.240;8.406;2023-08-20T00:37:05;6.40;;;4.73;;
3407;SDS011;1717;50.240;8.406;2023-08-20T00:39:32;6.90;;;4.67;;
3407;SDS011;1717;50.240;8.406;2023-08-20T00:41:59;5.87;;;4.40;;
3407;SDS011;1717;50.240;8.406;2023-08-20T00:44:25;7.63;;;4.67;;
3407;SDS011;1717;50.240;8.406;2023-08-20T00:46:53;5.83;;;4.67;;
3407;SDS011;1717;50.240;8.406;2023-08-20T00:49:19;6.47;;;4.57;;
3407;SDS011;1717;50.240;8.406;2023-08-20T00:51:49;6.83;;;4.77;;
3407;SDS011;1717;50.240;8.406;2023-08-20T00:54:16;5.30;;;4.00;;
3407;SDS011;1717;50.240;8.406;2023-08-20T00:56:43;7.00;;;5.37;;
3407;SDS011;1717;50.240;8.406;2023-08-20T00:59:11;6.30;;;4.60;;
3407;SDS011;1717;50.240;8.406;2023-08-20T01:01:38;6.10;;;4.10;;
3407;SDS011;1717;50.240;8.406;2023-08-20T01:04:05;9.03;;;4.57;;
3407;SDS011;1717;50.240;8.406;2023-08-20T01:06:33;8.53;;;5.07;;
3407;SDS011;1717;50.240;8.406;2023-08-20T01:09:10;5.37;;;4.33;;
3407;SDS011;1717;50.240;8.406;2023-08-20T01:11:49;4.90;;;4.20;;
3407;SDS011;1717;50.240;8.406;2023-08-20T01:14:22;5.07;;;4.37;;
3407;SDS011;1717;50.240;8.406;2023-08-20T01:16:49;4.60;;;4.20;;
3407;SDS011;1717;50.240;8.406;2023-08-20T01:19:16;7.50;;;4.73;;
3407;SDS011;1717;50.240;8.406;2023-08-20T01:21:47;6.10;;;4.77;;
3407;SDS011;1717;50.240;8.406;2023-08-20T01:24:33;8.97;;;4.07;;
3407;SDS011;1717;50.240;8.406;2023-08-20T01:27:17;3.80;;;3.50;;
3407;SDS011;1717;50.240;8.406;2023-08-20T01:29:54;6.93;;;4.10;;
3407;SDS011;1717;50.240;8.406;2023-08-20T01:32:22;5.50;;;3.77;;
3407;SDS011;1717;50.240;8.406;2023-08-20T01:34:50;4.20;;;3.80;;
3407;SDS011;1717;50.240;8.406;2023-08-20T01:37:18;8.30;;;3.97;;
3407;SDS011;1717;50.240;8.406;2023-08-20T01:39:44;4.70;;;4.07;;
3407;SDS011;1717;50.240;8.406;2023-08-20T01:42:11;5.37;;;4.77;;
3407;SDS011;1717;50.240;8.406;2023-08-20T01:44:38;10.23;;;4.63;;
3407;SDS011;1717;50.240;8.406;2023-08-20T01:47:06;4.63;;;4.00;;
3407;SDS011;1717;50.240;8.406;2023-08-20T01:49:33;6.47;;;4.37;;
3407;SDS011;1717;50.240;8.406;2023-08-20T01:52:00;6.20;;;4.30;;
3407;SDS011;1717;50.240;8.406;2023-08-20T01:54:27;5.73;;;3.90;;
3407;SDS011;1717;50.240;8.406;2023-08-20T01:56:54;4.40;;;4.00;;
3407;SDS011;1717;50.240;8.406;2023-08-20T01:59:21;9.63;;;4.37;;
3407;SDS011;1717;50.240;8.406;2023-08-20T02:01:48;4.40;;;4.00;;
3407;SDS011;1717;50.240;8.406;2023-08-20T02:04:16;8.83;;;4.73;;
3407;SDS011;1717;50.240;8.406;2023-08-20T02:06:43;4.47;;;4.07;;
3407;SDS011;1717;50.240;8.406;2023-08-20T02:09:10;5.30;;;4.70;;
3407;SDS011;1717;50.240;8.406;2023-08-20T02:11:37;7.83;;;4.93;;
3407;SDS011;1717;50.240;8.406;2023-08-20T02:14:04;5.93;;;4.23;;
3407;SDS011;1717;50.240;8.406;2023-08-20T02:16:30;6.40;;;4.97;;
3407;SDS011;1717;50.240;8.406;2023-08-20T02:18:57;5.33;;;4.83;;
3407;SDS011;1717;50.240;8.406;2023-08-20T02:21:25;6.43;;;4.33;;
3407;SDS011;1717;50.240;8.406;2023-08-20T02:23:52;7.03;;;5.10;;
3407;SDS011;1717;50.240;8.406;2023-08-20T02:26:19;5.43;;;4.80;;
3407;SDS011;1717;50.240;8.406;2023-08-20T02:28:46;5.70;;;4.90;;
3407;SDS011;1717;50.240;8.406;2023-08-20T02:31:12;9.17;;;5.37;;
3407;SDS011;1717;50.240;8.406;2023-08-20T02:33:39;5.87;;;5.23;;
3407;SDS011;1717;50.240;8.406;2023-08-20T02:36:06;8.03;;;5.20;;
3407;SDS011;1717;50.240;8.406;2023-08-20T02:38:34;6.50;;;5.90;;
3407;SDS011;1717;50.240;8.406;2023-08-20T02:41:01;5.00;;;4.50;;
3407;SDS011;1717;50.240;8.406;2023-08-20T02:43:28;7.30;;;5.33;;
3407;SDS011;1717;50.240;8.406;2023-08-20T02:45:55;6.10;;;4.97;;
3407;SDS011;1717;50.240;8.406;2023-08-20T02:48:22;6.40;;;5.73;;
3407;SDS011;1717;50.240;8.406;2023-08-20T02:50:52;5.60;;;4.60;;
3407;SDS011;1717;50.240;8.406;2023-08-20T02:53:19;5.63;;;5.13;;
3407;SDS011;1717;50.240;8.406;2023-08-20T02:55:47;5.43;;;4.93;;
3407;SDS011;1717;50.240;8.406;2023-08-20T02:58:15;7.17;;;5.30;;
3407;SDS011;1717;50.240;8.406;2023-08-20T03:00:42;5.57;;;5.07;;
3407;SDS011;1717;50.240;8.406;2023-08-20T03:03:09;4.97;;;4.57;;
3407;SDS011;1717;50.240;8.406;2023-08-20T03:05:37;6.20;;;5.00;;
3407;SDS011;1717;50.240;8.406;2023-08-20T03:08:04;7.20;;;5.43;;
3407;SDS011;1717;50.240;8.406;2023-08-20T03:10:31;5.50;;;5.00;;
3407;SDS011;1717;50.240;8.406;2023-08-20T03:13:00;6.93;;;5.70;;
3407;SDS011;1717;50.240;8.406;2023-08-20T03:15:27;6.43;;;5.63;;
3407;SDS011;1717;50.240;8.406;2023-08-20T03:17:54;7.70;;;6.13;;
3407;SDS011;1717;50.240;8.406;2023-08-20T03:20:21;6.57;;;5.43;;
3407;SDS011;1717;50.240;8.406;2023-08-20T03:22:48;7.00;;;5.97;;
3407;SDS011;1717;50.240;8.406;2023-08-20T03:25:14;7.20;;;5.93;;
3407;SDS011;1717;50.240;8.406;2023-08-20T03:27:41;5.97;;;5.37;;
3407;SDS011;1717;50.240;8.406;2023-08-20T03:30:10;7.20;;;6.57;;
3407;SDS011;1717;50.240;8.406;2023-08-20T03:32:38;6.33;;;5.60;;
3407;SDS011;1717;50.240;8.406;2023-08-20T03:35:05;6.40;;;5.23;;
3407;SDS011;1717;50.240;8.406;2023-08-20T03:37:32;5.87;;;5.30;;
3407;SDS011;1717;50.240;8.406;2023-08-20T03:39:59;6.50;;;5.90;;
3407;SDS011;1717;50.240;8.406;2023-08-20T03:42:26;5.93;;;5.37;;
3407;SDS011;1717;50.240;8.406;2023-08-20T03:44:52;7.10;;;5.90;;
3407;SDS011;1717;50.240;8.406;2023-08-20T03:47:20;8.03;;;6.00;;
3407;SDS011;1717;50.240;8.406;2023-08-20T03:49:47;6.37;;;5.73;;
3407;SDS011;1717;50.240;8.406;2023-08-20T03:52:14;8.90;;;6.10;;
3407;SDS011;1717;50.240;8.406;2023-08-20T03:54:41;7.07;;;6.47;;
3407;SDS011;1717;50.240;8.406;2023-08-20T03:57:08;6.63;;;5.93;;
3407;SDS011;1717;50.240;8.406;2023-08-20T03:59:35;7.43;;;5.50;;
3407;SDS011;1717;50.240;8.406;2023-08-20T04:02:01;8.50;;;7.07;;
3407;SDS011;1717;50.240;8.406;2023-08-20T04:04:30;7.40;;;6.70;;
3407;SDS011;1717;50.240;8.406;2023-08-20T04:06:57;5.73;;;5.03;;
3407;SDS011;1717;50.240;8.406;2023-08-20T04:09:24;7.63;;;6.83;;
3407;SDS011;1717;50.240;8.406;2023-08-20T04:11:51;8.03;;;7.23;;
3407;SDS011;1717;50.240;8.406;2023-08-20T04:14:17;7.83;;;6.27;;
3407;SDS011;1717;50.240;8.406;2023-08-20T04:16:44;9.07;;;6.30;;
3407;SDS011;1717;50.240;8.406;2023-08-20T04:19:11;7.60;;;6.83;;
3407;SDS011;1717;50.240;8.406;2023-08-20T04:21:39;6.83;;;6.23;;
3407;SDS011;1717;50.240;8.406;2023-08-20T04:24:06;7.40;;;6.80;;
3407;SDS011;1717;50.240;8.406;2023-08-20T04:26:33;7.13;;;6.27;;
3407;SDS011;1717;50.240;8.406;2023-08-20T04:29:00;6.90;;;5.87;;
3407;SDS011;1717;50.240;8.406;2023-08-20T04:31:26;8.17;;;6.47;;
3407;SDS011;1717;50.240;8.406;2023-08-20T04:33:53;6.40;;;5.80;;
3407;SDS011;1717;50.240;8.406;2023-08-20T04:36:20;6.93;;;5.87;;
3407;SDS011;1717;50.240;8.406;2023-08-20T04:38:48;7.77;;;6.13;;
3407;SDS011;1717;50.240;8.406;2023-08-20T04:41:15;7.17;;;6.53;;
3407;SDS011;1717;50.240;8.406;2023-08-20T04:43:42;7.63;;;6.90;;
3407;SDS011;1717;50.240;8.406;2023-08-20T04:46:09;6.87;;;6.17;;
3407;SDS011;1717;50.240;8.406;2023-08-20T04:48:35;9.67;;;6.77;;
3407;SDS011;1717;50.240;8.406;2023-08-20T04:51:02;7.33;;;6.33;;
3407;SDS011;1717;50.240;8.406;2023-08-20T04:53:29;6.03;;;5.53;;
3407;SDS011;1717;50.240;8.406;2023-08-20T04:55:58;7.37;;;6.67;;
3407;SDS011;1717;50.240;8.406;2023-08-20T04:58:25;7.23;;;6.40;;
3407;SDS011;1717;50.240;8.406;2023-08-20T05:00:51;7.00;;;6.33;;
3407;SDS011;1717;50.240;8.406;2023-08-20T05:03:18;7.13;;;6.53;;
3407;SDS011;1717;50.240;8.406;2023-08-20T05:05:48;9.13;;;7.67;;
3407;SDS011;1717;50.240;8.406;2023-08-20T05:08:15;7.70;;;6.30;;
3407;SDS011;1717;50.240;8.406;2023-08-20T05:10:42;7.23;;;6.53;;
3407;SDS011;1717;50.240;8.406;2023-08-20T05:13:10;9.50;;;7.33;;
3407;SDS011;1717;50.240;8.406;2023-08-20T05:15:37;8.10;;;7.00;;
3407;SDS011;1717;50.240;8.406;2023-08-20T05:18:04;9.40;;;8.40;;
3407;SDS011;1717;50.240;8.406;2023-08-20T05:20:31;7.43;;;6.70;;
3407;SDS011;1717;50.240;8.406;2023-08-20T05:22:57;7.40;;;6.70;;
3407;SDS011;1717;50.240;8.406;2023-08-20T05:25:25;8.70;;;7.70;;
3407;SDS011;1717;50.240;8.406;2023-08-20T05:27:52;8.37;;;7.57;;
3407;SDS011;1717;50.240;8.406;2023-08-20T05:30:20;7.40;;;6.70;;
3407;SDS011;1717;50.240;8.406;2023-08-20T05:32:47;7.90;;;7.10;;
3407;SDS011;1717;50.240;8.406;2023-08-20T05:35:14;7.90;;;7.10;;
3407;SDS011;1717;50.240;8.406;2023-08-20T05:37:41;10.33;;;7.13;;
3407;SDS011;1717;50.240;8.406;2023-08-20T05:40:08;7.27;;;6.67;;
3407;SDS011;1717;50.240;8.406;2023-08-20T05:42:35;11.37;;;7.97;;
3407;SDS011;1717;50.240;8.406;2023-08-20T05:45:02;10.53;;;7.03;;
3407;SDS011;1717;50.240;8.406;2023-08-20T05:47:31;8.10;;;7.30;;
3407;SDS011;1717;50.240;8.406;2023-08-20T05:49:58;8.20;;;7.40;;
3407;SDS011;1717;50.240;8.406;2023-08-20T05:52:24;8.03;;;6.93;;
3407;SDS011;1717;50.240;8.406;2023-08-20T05:54:51;7.73;;;7.03;;
3407;SDS011;1717;50.240;8.406;2023-08-20T05:57:18;9.57;;;8.57;;
3407;SDS011;1717;50.240;8.406;2023-08-20T05:59:45;8.40;;;7.50;;
3407;SDS011;1717;50.240;8.406;2023-08-20T06:02:14;12.03;;;7.50;;
3407;SDS011;1717;50.240;8.406;2023-08-20T06:04:43;9.40;;;8.47;;
3407;SDS011;1717;50.240;8.406;2023-08-20T06:07:10;10.60;;;8.40;;
3407;SDS011;1717;50.240;8.406;2023-08-20T06:09:37;10.50;;;7.77;;
3407;SDS011;1717;50.240;8.406;2023-08-20T06:12:04;13.43;;;7.73;;
3407;SDS011;1717;50.240;8.406;2023-08-20T06:14:31;8.77;;;7.17;;
3407;SDS011;1717;50.240;8.406;2023-08-20T06:16:58;9.10;;;8.17;;
3407;SDS011;1717;50.240;8.406;2023-08-20T06:19:25;9.00;;;7.50;;
3407;SDS011;1717;50.240;8.406;2023-08-20T06:21:53;10.17;;;8.73;;
3407;SDS011;1717;50.240;8.406;2023-08-20T06:24:20;9.97;;;8.97;;
3407;SDS011;1717;50.240;8.406;2023-08-20T06:26:47;13.30;;;8.47;;
3407;SDS011;1717;50.240;8.406;2023-08-20T06:29:14;10.67;;;8.87;;
3407;SDS011;1717;50.240;8.406;2023-08-20T06:31:40;7.70;;;7.00;;
3407;SDS011;1717;50.240;8.406;2023-08-20T06:34:07;8.87;;;8.10;;
3407;SDS011;1717;50.240;8.406;2023-08-20T06:36:34;9.43;;;8.13;;
3407;SDS011;1717;50.240;8.406;2023-08-20T06:39:03;10.93;;;8.63;;
3407;SDS011;1717;50.240;8.406;2023-08-20T06:41:30;8.93;;;8.13;;
3407;SDS011;1717;50.240;8.406;2023-08-20T06:43:57;9.10;;;8.17;;
3407;SDS011;1717;50.240;8.406;2023-08-20T06:46:24;8.97;;;8.10;;
3407;SDS011;1717;50.240;8.406;2023-08-20T06:48:51;11.70;;;8.10;;
3407;SDS011;1717;50.240;8.406;2023-08-20T06:51:19;12.00;;;8.70;;
3407;SDS011;1717;50.240;8.406;2023-08-20T06:53:47;9.63;;;7.70;;
3407;SDS011;1717;50.240;8.406;2023-08-20T06:56:15;8.70;;;7.90;;
3407;SDS011;1717;50.240;8.406;2023-08-20T06:58:42;9.03;;;8.23;;
3407;SDS011;1717;50.240;8.406;2023-08-20T07:01:09;8.90;;;8.10;;
3407;SDS011;1717;50.240;8.406;2023-08-20T07:03:38;11.43;;;9.23;;
3407;SDS011;1717;50.240;8.406;2023-08-20T07:06:06;8.97;;;8.17;;
3407;SDS011;1717;50.240;8.406;2023-08-20T07:08:34;10.00;;;8.93;;
3407;SDS011;1717;50.240;8.406;2023-08-20T07:11:01;10.70;;;8.47;;
3407;SDS011;1717;50.240;8.406;2023-08-20T07:13:29;13.90;;;9.63;;
3407;SDS011;1717;50.240;8.406;2023-08-20T07:15:56;10.40;;;9.30;;
3407;SDS011;1717;50.240;8.406;2023-08-20T07:18:23;10.00;;;8.67;;
3407;SDS011;1717;50.240;8.406;2023-08-20T07:20:50;10.13;;;9.03;;
3407;SDS011;1717;50.240;8.406;2023-08-20T07:23:17;10.47;;;9.47;;
3407;SDS011;1717;50.240;8.406;2023-08-20T07:25:44;10.80;;;9.77;;
3407;SDS011;1717;50.240;8.406;2023-08-20T07:28:11;12.97;;;11.67;;
3407;SDS011;1717;50.240;8.406;2023-08-20T07:30:40;11.33;;;10.17;;
3407;SDS011;1717;50.240;8.406;2023-08-20T07:33:07;12.23;;;10.20;;
3407;SDS011;1717;50.240;8.406;2023-08-20T07:35:34;9.80;;;8.70;;
3407;SDS011;1717;50.240;8.406;2023-08-20T07:38:01;11.63;;;9.90;;
3407;SDS011;1717;50.240;8.406;2023-08-20T07:40:28;9.57;;;8.47;;
3407;SDS011;1717;50.240;8.406;2023-08-20T07:42:55;12.03;;;9.83;;
3407;SDS011;1717;50.240;8.406;2023-08-20T07:45:22;10.90;;;9.80;;
3407;SDS011;1717;50.240;8.406;2023-08-20T07:47:50;10.77;;;9.70;;
3407;SDS011;1717;50.240;8.406;2023-08-20T07:50:17;10.30;;;9.30;;
3407;SDS011;1717;50.240;8.406;2023-08-20T07:52:44;11.10;;;10.00;;
3407;SDS011;1717;50.240;8.406;2023-08-20T07:55:11;11.97;;;10.77;;
3407;SDS011;1717;50.240;8.406;2023-08-20T07:57:37;11.20;;;10.20;;
3407;SDS011;1717;50.240;8.406;2023-08-20T08:00:05;11.23;;;10.27;;
3407;SDS011;1717;50.240;8.406;2023-08-20T08:02:32;11.47;;;10.47;;
3407;SDS011;1717;50.240;8.406;2023-08-20T08:05:00;12.83;;;11.73;;
3407;SDS011;1717;50.240;8.406;2023-08-20T08:07:27;16.90;;;11.27;;
3407;SDS011;1717;50.240;8.406;2023-08-20T08:09:54;12.33;;;10.87;;
3407;SDS011;1717;50.240;8.406;2023-08-20T08:12:21;12.73;;;10.60;;
3407;SDS011;1717;50.240;8.406;2023-08-20T08:14:48;13.23;;;11.90;;
3407;SDS011;1717;50.240;8.406;2023-08-20T08:17:15;12.17;;;11.10;;
3407;SDS011;1717;50.240;8.406;2023-08-20T08:19:41;12.00;;;10.90;;
3407;SDS011;1717;50.240;8.406;2023-08-20T08:22:10;13.07;;;11.97;;
3407;SDS011;1717;50.240;8.406;2023-08-20T08:24:36;14.60;;;11.53;;
3407;SDS011;1717;50.240;8.406;2023-08-20T08:27:03;13.10;;;11.80;;
3407;SDS011;1717;50.240;8.406;2023-08-20T08:29:30;12.80;;;11.50;;
3407;SDS011;1717;50.240;8.406;2023-08-20T08:31:57;13.40;;;12.20;;
3407;SDS011;1717;50.240;8.406;2023-08-20T08:34:24;14.67;;;13.20;;
3407;SDS011;1717;50.240;8.406;2023-08-20T08:36:50;13.70;;;12.50;;
3407;SDS011;1717;50.240;8.406;2023-08-20T08:39:19;12.33;;;11.33;;
3407;SDS011;1717;50.240;8.406;2023-08-20T08:41:46;13.97;;;12.53;;
3407;SDS011;1717;50.240;8.406;2023-08-20T08:44:17;12.43;;;11.33;;
3407;SDS011;1717;50.240;8.406;2023-08-20T08:46:44;14.40;;;12.70;;
3407;SDS011;1717;50.240;8.406;2023-08-20T08:49:15;12.50;;;11.40;;
3407;SDS011;1717;50.240;8.406;2023-08-20T08:51:42;12.67;;;11.57;;
3407;SDS011;1717;50.240;8.406;2023-08-20T08:54:10;12.50;;;11.40;;
3407;SDS011;1717;50.240;8.406;2023-08-20T08:56:41;13.50;;;12.20;;
3407;SDS011;1717;50.240;8.406;2023-08-20T08:59:07;12.20;;;11.20;;
3407;SDS011;1717;50.240;8.406;2023-08-20T09:01:37;13.20;;;11.90;;
3407;SDS011;1717;50.240;8.406;2023-08-20T09:04:05;11.47;;;10.37;;
3407;SDS011;1717;50.240;8.406;2023-08-20T09:06:43;11.53;;;10.53;;
3407;SDS011;1717;50.240;8.406;2023-08-20T09:09:12;10.60;;;9.70;;
3407;SDS011;1717;50.240;8.406;2023-08-20T09:11:41;11.37;;;10.37;;
3407;SDS011;1717;50.240;8.406;2023-08-20T09:14:07;11.50;;;10.40;;
3407;SDS011;1717;50.240;8.406;2023-08-20T09:16:34;11.70;;;10.60;;
3407;SDS011;1717;50.240;8.406;2023-08-20T09:19:01;11.53;;;10.50;;
3407;SDS011;1717;50.240;8.406;2023-08-20T09:21:29;10.30;;;9.40;;
3407;SDS011;1717;50.240;8.406;2023-08-20T09:23:56;9.40;;;8.67;;
3407;SDS011;1717;50.240;8.406;2023-08-20T09:26:23;11.23;;;10.13;;
3407;SDS011;1717;50.240;8.406;2023-08-20T09:28:54;12.67;;;8.97;;
3407;SDS011;1717;50.240;8.406;2023-08-20T09:31:22;10.20;;;9.30;;
3407;SDS011;1717;50.240;8.406;2023-08-20T09:34:03;10.37;;;9.00;;
3407;SDS011;1717;50.240;8.406;2023-08-20T09:36:31;10.73;;;9.73;;
3407;SDS011;1717;50.240;8.406;2023-08-20T09:38:58;10.83;;;9.70;;
3407;SDS011;1717;50.240;8.406;2023-08-20T09:41:25;9.00;;;8.30;;
3407;SDS011;1717;50.240;8.406;2023-08-20T09:43:55;9.97;;;9.07;;
3407;SDS011;1717;50.240;8.406;2023-08-20T09:46:24;9.17;;;8.27;;
3407;SDS011;1717;50.240;8.406;2023-08-20T09:48:52;10.27;;;9.23;;
3407;SDS011;1717;50.240;8.406;2023-08-20T09:51:24;9.53;;;8.40;;
3407;SDS011;1717;50.240;8.406;2023-08-20T09:53:53;9.40;;;8.53;;
3407;SDS011;1717;50.240;8.406;2023-08-20T09:56:27;9.70;;;8.70;;
3407;SDS011;1717;50.240;8.406;2023-08-20T09:58:56;9.90;;;9.10;;
3407;SDS011;1717;50.240;8.406;2023-08-20T10:01:24;9.43;;;8.60;;
3407;SDS011;1717;50.240;8.406;2023-08-20T10:03:52;9.53;;;8.73;;
3407;SDS011;1717;50.240;8.406;2023-08-20T10:06:19;9.90;;;9.00;;
3407;SDS011;1717;50.240;8.406;2023-08-20T10:08:46;9.47;;;8.50;;
3407;SDS011;1717;50.240;8.406;2023-08-20T10:11:14;9.13;;;8.30;;
3407;SDS011;1717;50.240;8.406;2023-08-20T10:13:41;9.60;;;8.80;;
3407;SDS011;1717;50.240;8.406;2023-08-20T10:16:09;10.53;;;9.40;;
3407;SDS011;1717;50.240;8.406;2023-08-20T10:18:38;9.50;;;8.60;;
3407;SDS011;1717;50.240;8.406;2023-08-20T10:21:05;11.03;;;8.87;;
3407;SDS011;1717;50.240;8.406;2023-08-20T10:23:34;11.20;;;9.20;;
3407;SDS011;1717;50.240;8.406;2023-08-20T10:26:08;11.07;;;10.10;;
3407;SDS011;1717;50.240;8.406;2023-08-20T10:28:35;11.30;;;10.10;;
3407;SDS011;1717;50.240;8.406;2023-08-20T10:31:03;10.73;;;9.70;;
3407;SDS011;1717;50.240;8.406;2023-08-20T10:33:34;12.50;;;10.40;;
3407;SDS011;1717;50.240;8.406;2023-08-20T10:36:08;9.70;;;8.90;;
3407;SDS011;1717;50.240;8.406;2023-08-20T10:38:36;9.90;;;8.93;;
3407;SDS011;1717;50.240;8.406;2023-08-20T10:41:07;13.03;;;10.73;;
3407;SDS011;1717;50.240;8.406;2023-08-20T10:43:34;11.87;;;10.70;;
3407;SDS011;1717;50.240;8.406;2023-08-20T10:46:04;10.17;;;9.27;;
3407;SDS011;1717;50.240;8.406;2023-08-20T10:48:31;11.17;;;10.10;;
3407;SDS011;1717;50.240;8.406;2023-08-20T10:51:11;10.03;;;9.13;;
3407;SDS011;1717;50.240;8.406;2023-08-20T10:53:39;12.07;;;9.43;;
3407;SDS011;1717;50.240;8.406;2023-08-20T10:56:11;10.67;;;9.67;;
3407;SDS011;1717;50.240;8.406;2023-08-20T10:58:43;10.07;;;9.07;;
3407;SDS011;1717;50.240;8.406;2023-08-20T11:01:12;9.73;;;8.83;;
3407;SDS011;1717;50.240;8.406;2023-08-20T11:03:46;11.27;;;10.17;;
3407;SDS011;1717;50.240;8.406;2023-08-20T11:06:14;11.17;;;10.17;;
3407;SDS011;1717;50.240;8.406;2023-08-20T11:08:41;10.67;;;9.57;;
3407;SDS011;1717;50.240;8.406;2023-08-20T11:11:09;10.27;;;9.27;;
3407;SDS011;1717;50.240;8.406;2023-08-20T11:13:36;15.10;;;8.80;;
3407;SDS011;1717;50.240;8.406;2023-08-20T11:16:03;10.67;;;9.57;;
3407;SDS011;1717;50.240;8.406;2023-08-20T11:18:32;10.23;;;9.30;;
3407;SDS011;1717;50.240;8.406;2023-08-20T11:21:01;10.43;;;9.23;;
3407;SDS011;1717;50.240;8.406;2023-08-20T11:23:28;11.63;;;10.30;;
3407;SDS011;1717;50.240;8.406;2023-08-20T11:25:56;9.70;;;8.80;;
3407;SDS011;1717;50.240;8.406;2023-08-20T11:28:24;10.43;;;9.50;;
3407;SDS011;1717;50.240;8.406;2023-08-20T11:30:52;11.80;;;9.03;;
3407;SDS011;1717;50.240;8.406;2023-08-20T11:33:20;12.50;;;9.10;;
3407;SDS011;1717;50.240;8.406;2023-08-20T11:35:47;10.30;;;9.13;;
3407;SDS011;1717;50.240;8.406;2023-08-20T11:38:16;11.00;;;9.90;;
3407;SDS011;1717;50.240;8.406;2023-08-20T11:40:43;12.77;;;10.20;;
3407;SDS011;1717;50.240;8.406;2023-08-20T11:43:09;10.73;;;9.83;;
3407;SDS011;1717;50.240;8.406;2023-08-20T11:45:43;10.43;;;9.43;;
3407;SDS011;1717;50.240;8.406;2023-08-20T11:48:12;10.33;;;9.40;;
3407;SDS011;1717;50.240;8.406;2023-08-20T11:50:39;9.97;;;9.00;;
3407;SDS011;1717;50.240;8.406;2023-08-20T11:53:07;10.73;;;9.67;;
3407;SDS011;1717;50.240;8.406;2023-08-20T11:55:35;9.67;;;8.83;;
3407;SDS011;1717;50.240;8.406;2023-08-20T11:58:04;10.40;;;8.80;;
3407;SDS011;1717;50.240;8.406;2023-08-20T12:00:31;10.63;;;9.63;;
3407;SDS011;1717;50.240;8.406;2023-08-20T12:02:58;8.60;;;7.90;;
3407;SDS011;1717;50.240;8.406;2023-08-20T12:05:28;7.40;;;6.80;;
3407;SDS011;1717;50.240;8.406;2023-08-20T12:07:56;5.80;;;5.30;;
3407;SDS011;1717;50.240;8.406;2023-08-20T12:10:24;11.40;;;5.67;;
3407;SDS011;1717;50.240;8.406;2023-08-20T12:12:53;9.07;;;6.27;;
3407;SDS011;1717;50.240;8.406;2023-08-20T12:15:21;7.63;;;5.67;;
3407;SDS011;1717;50.240;8.406;2023-08-20T12:17:55;6.70;;;6.00;;
3407;SDS011;1717;50.240;8.406;2023-08-20T12:20:22;5.60;;;5.10;;
3407;SDS011;1717;50.240;8.406;2023-08-20T12:22:50;7.13;;;6.17;;
3407;SDS011;1717;50.240;8.406;2023-08-20T12:25:16;10.30;;;5.97;;
3407;SDS011;1717;50.240;8.406;2023-08-20T12:27:44;6.67;;;6.03;;
3407;SDS011;1717;50.240;8.406;2023-08-20T12:30:12;5.37;;;4.83;;
3407;SDS011;1717;50.240;8.406;2023-08-20T12:32:39;6.00;;;5.40;;
3407;SDS011;1717;50.240;8.406;2023-08-20T12:35:06;6.03;;;5.00;;
3407;SDS011;1717;50.240;8.406;2023-08-20T12:37:33;6.97;;;6.27;;
3407;SDS011;1717;50.240;8.406;2023-08-20T12:40:00;11.93;;;5.30;;
3407;SDS011;1717;50.240;8.406;2023-08-20T12:42:29;9.20;;;5.80;;
3407;SDS011;1717;50.240;8.406;2023-08-20T12:44:55;7.10;;;5.87;;
3407;SDS011;1717;50.240;8.406;2023-08-20T12:47:24;5.87;;;5.27;;
3407;SDS011;1717;50.240;8.406;2023-08-20T12:49:51;9.47;;;5.00;;
3407;SDS011;1717;50.240;8.406;2023-08-20T12:52:18;7.23;;;5.30;;
3407;SDS011;1717;50.240;8.406;2023-08-20T12:54:44;9.03;;;4.80;;
3407;SDS011;1717;50.240;8.406;2023-08-20T12:57:11;5.57;;;5.07;;
3407;SDS011;1717;50.240;8.406;2023-08-20T12:59:38;5.60;;;5.00;;
3407;SDS011;1717;50.240;8.406;2023-08-20T13:02:05;5.97;;;5.37;;
3407;SDS011;1717;50.240;8.406;2023-08-20T13:04:33;6.83;;;5.50;;
3407;SDS011;1717;50.240;8.406;2023-08-20T13:07:01;5.33;;;4.83;;
3407;SDS011;1717;50.240;8.406;2023-08-20T13:09:29;5.70;;;5.20;;
3407;SDS011;1717;50.240;8.406;2023-08-20T13:11:57;6.63;;;5.40;;
3407;SDS011;1717;50.240;8.406;2023-08-20T13:14:26;7.23;;;5.00;;
3407;SDS011;1717;50.240;8.406;2023-08-20T13:16:53;6.23;;;4.60;;
3407;SDS011;1717;50.240;8.406;2023-08-20T13:19:21;6.10;;;5.50;;
3407;SDS011;1717;50.240;8.406;2023-08-20T13:21:49;7.07;;;5.60;;
3407;SDS011;1717;50.240;8.406;2023-08-20T13:24:16;8.23;;;5.23;;
3407;SDS011;1717;50.240;8.406;2023-08-20T13:26:43;14.97;;;5.17;;
3407;SDS011;1717;50.240;8.406;2023-08-20T13:29:10;8.00;;;5.77;;
3407;SDS011;1717;50.240;8.406;2023-08-20T13:31:37;6.50;;;5.80;;
3407;SDS011;1717;50.240;8.406;2023-08-20T13:34:04;6.20;;;5.40;;
3407;SDS011;1717;50.240;8.406;2023-08-20T13:36:31;5.83;;;5.23;;
3407;SDS011;1717;50.240;8.406;2023-08-20T13:39:00;5.80;;;5.23;;
3407;SDS011;1717;50.240;8.406;2023-08-20T13:41:27;5.27;;;4.77;;
3407;SDS011;1717;50.240;8.406;2023-08-20T13:43:54;5.40;;;4.90;;
3407;SDS011;1717;50.240;8.406;2023-08-20T13:46:21;8.70;;;6.00;;
3407;SDS011;1717;50.240;8.406;2023-08-20T13:48:47;7.43;;;6.73;;
3407;SDS011;1717;50.240;8.406;2023-08-20T13:51:14;6.40;;;5.87;;
3407;SDS011;1717;50.240;8.406;2023-08-20T13:53:41;6.27;;;5.67;;
3407;SDS011;1717;50.240;8.406;2023-08-20T13:56:09;5.50;;;4.97;;
3407;SDS011;1717;50.240;8.406;2023-08-20T13:58:36;7.73;;;5.60;;
3407;SDS011;1717;50.240;8.406;2023-08-20T14:01:03;7.57;;;6.33;;
3407;SDS011;1717;50.240;8.406;2023-08-20T14:03:31;9.03;;;7.00;;
3407;SDS011;1717;50.240;8.406;2023-08-20T14:05:57;8.40;;;6.70;;
3407;SDS011;1717;50.240;8.406;2023-08-20T14:08:24;9.97;;;6.60;;
3407;SDS011;1717;50.240;8.406;2023-08-20T14:10:51;6.60;;;5.80;;
3407;SDS011;1717;50.240;8.406;2023-08-20T14:13:20;6.47;;;5.80;;
3407;SDS011;1717;50.240;8.406;2023-08-20T14:15:47;6.33;;;5.73;;
3407;SDS011;1717;50.240;8.406;2023-08-20T14:18:13;9.40;;;6.10;;
3407;SDS011;1717;50.240;8.406;2023-08-20T14:20:40;6.70;;;5.40;;
3407;SDS011;1717;50.240;8.406;2023-08-20T14:23:07;6.73;;;5.87;;
3407;SDS011;1717;50.240;8.406;2023-08-20T14:25:34;6.43;;;5.83;;
3407;SDS011;1717;50.240;8.406;2023-08-20T14:28:01;7.33;;;5.53;;
3407;SDS011;1717;50.240;8.406;2023-08-20T14:30:30;7.73;;;7.10;;
3407;SDS011;1717;50.240;8.406;2023-08-20T14:32:57;7.47;;;6.63;;
3407;SDS011;1717;50.240;8.406;2023-08-20T14:35:23;6.30;;;5.70;;
3407;SDS011;1717;50.240;8.406;2023-08-20T14:37:51;7.67;;;6.50;;
3407;SDS011;1717;50.240;8.406;2023-08-20T14:40:19;7.93;;;6.00;;
3407;SDS011;1717;50.240;8.406;2023-08-20T14:42:45;7.90;;;6.03;;
3407;SDS011;1717;50.240;8.406;2023-08-20T14:45:12;8.63;;;6.60;;
3407;SDS011;1717;50.240;8.406;2023-08-20T14:47:41;8.03;;;7.33;;
3407;SDS011;1717;50.240;8.406;2023-08-20T14:50:08;9.07;;;6.17;;
3407;SDS011;1717;50.240;8.406;2023-08-20T14:52:35;8.83;;;5.53;;
3407;SDS011;1717;50.240;8.406;2023-08-20T14:55:02;7.00;;;6.30;;
3407;SDS011;1717;50.240;8.406;2023-08-20T14:57:33;6.80;;;6.20;;
3407;SDS011;1717;50.240;8.406;2023-08-20T15:00:00;9.60;;;6.33;;
3407;SDS011;1717;50.240;8.406;2023-08-20T15:02:28;9.53;;;6.70;;
3407;SDS011;1717;50.240;8.406;2023-08-20T15:04:56;6.50;;;5.80;;
3407;SDS011;1717;50.240;8.406;2023-08-20T15:07:24;6.70;;;6.20;;
3407;SDS011;1717;50.240;8.406;2023-08-20T15:09:51;7.90;;;6.30;;
3407;SDS011;1717;50.240;8.406;2023-08-20T15:12:18;7.10;;;5.87;;